createdAt,value
2023-02-08T00:00:28.702Z,52.25
2023-02-08T00:02:56.936Z,55.75
2023-02-08T00:05:24.815Z,54.00
2023-02-08T00:07:52.784Z,55.25
2023-02-08T00:10:20.729Z,53.00
2023-02-08T00:12:48.863Z,51.50
2023-02-08T00:15:16.753Z,53.75
2023-02-08T00:17:46.056Z,49.25
2023-02-08T00:20:14.163Z,51.00
2023-02-08T00:22:42.381Z,52.75
2023-02-08T00:25:10.330Z,50.00
2023-02-08T00:27:38.199Z,50.75
2023-02-08T00:30:07.936Z,47.75
2023-02-08T00:32:36.143Z,50.25
2023-02-08T00:35:05.413Z,49.50
2023-02-08T00:37:33.331Z,47.75
2023-02-08T00:40:02.574Z,47.00
2023-02-08T00:42:30.790Z,48.00
2023-02-08T00:44:59.284Z,46.00
2023-02-08T00:47:27.516Z,45.00
2023-02-08T00:49:56.005Z,46.25
2023-02-08T00:52:25.306Z,44.50
2023-02-08T00:54:53.378Z,39.50
2023-02-08T00:57:21.255Z,40.50
2023-02-08T00:59:49.202Z,41.25
2023-02-08T01:02:17.394Z,39.25
2023-02-08T01:04:45.290Z,40.50
2023-02-08T01:07:13.226Z,38.75
2023-02-08T01:09:42.556Z,38.75
2023-02-08T01:12:10.707Z,36.25
2023-02-08T01:14:38.715Z,35.25
2023-02-08T01:17:06.591Z,37.50
2023-02-08T01:19:34.510Z,36.25
2023-02-08T01:22:02.413Z,39.50
2023-02-08T01:24:30.402Z,32.50
2023-02-08T01:26:59.720Z,35.75
2023-02-08T01:29:27.647Z,33.50
2023-02-08T01:31:55.557Z,33.25
2023-02-08T01:34:23.696Z,34.50
2023-02-08T01:36:51.627Z,34.25
2023-02-08T01:39:19.502Z,31.50
2023-02-08T01:41:47.369Z,29.25
2023-02-08T01:44:52.678Z,28.50
2023-02-08T01:47:21.956Z,29.00
2023-02-08T01:49:49.824Z,28.25
2023-02-08T01:52:19.560Z,30.25
2023-02-08T01:54:49.745Z,30.00
2023-02-08T01:57:17.648Z,28.50
2023-02-08T01:59:47.163Z,26.25
2023-02-08T02:02:17.059Z,28.00
2023-02-08T02:04:46.401Z,24.25
2023-02-08T02:07:14.291Z,28.00
2023-02-08T02:09:45.254Z,28.00
2023-02-08T02:12:13.570Z,26.00
2023-02-08T02:14:41.518Z,27.00
2023-02-08T02:17:09.431Z,25.00
2023-02-08T02:19:41.768Z,26.25
2023-02-08T02:22:35.745Z,22.50
2023-02-08T02:26:00.221Z,23.25
2023-02-08T02:28:52.824Z,22.75
2023-02-08T02:32:08.302Z,21.75
2023-02-08T02:34:39.729Z,26.50
2023-02-08T02:37:13.035Z,22.75
2023-02-08T02:39:44.701Z,21.75
2023-02-08T02:42:31.991Z,20.25
2023-02-08T02:45:06.853Z,21.75
2023-02-08T02:47:38.219Z,23.00
2023-02-08T02:50:09.142Z,19.50
2023-02-08T02:52:39.863Z,19.25
2023-02-08T02:55:09.531Z,20.50
2023-02-08T02:57:37.421Z,18.75
2023-02-08T03:00:11.094Z,19.00
2023-02-08T03:02:39.011Z,18.00
2023-02-08T03:05:11.746Z,19.00
2023-02-08T03:08:09.249Z,19.50
2023-02-08T03:10:51.002Z,19.00
2023-02-08T03:13:26.975Z,18.00
2023-02-08T03:16:01.778Z,18.25
2023-02-08T03:18:32.747Z,17.50
2023-02-08T03:21:03.336Z,17.00
2023-02-08T03:23:32.343Z,20.00
2023-02-08T03:26:03.736Z,16.00
2023-02-08T03:28:35.923Z,16.25
2023-02-08T03:31:06.643Z,18.25
2023-02-08T03:33:35.978Z,14.50
2023-02-08T03:36:07.106Z,16.50
2023-02-08T03:38:36.332Z,15.00
2023-02-08T03:41:05.500Z,17.50
2023-02-08T03:43:35.293Z,16.75
2023-02-08T03:46:17.197Z,16.50
2023-02-08T03:48:47.219Z,15.75
2023-02-08T03:51:16.836Z,17.75
2023-02-08T03:53:45.684Z,17.50
2023-02-08T03:56:15.284Z,15.25
2023-02-08T03:58:45.944Z,16.50
2023-02-08T04:01:16.067Z,14.00
2023-02-08T04:03:44.277Z,15.75
2023-02-08T04:06:12.127Z,15.50
2023-02-08T04:08:41.418Z,13.75
2023-02-08T04:11:09.897Z,15.50
2023-02-08T04:13:38.050Z,15.50
2023-02-08T04:16:06.387Z,14.00
2023-02-08T04:18:34.276Z,15.00
2023-02-08T04:21:02.174Z,16.25
2023-02-08T04:23:30.336Z,12.50
2023-02-08T04:25:59.554Z,12.50
2023-02-08T04:28:27.457Z,12.75
2023-02-08T04:30:56.111Z,13.25
2023-02-08T04:33:24.313Z,16.25
2023-02-08T04:35:52.220Z,13.25
2023-02-08T04:38:20.145Z,13.25
2023-02-08T04:40:48.054Z,13.00
2023-02-08T04:43:17.651Z,13.75
2023-02-08T04:45:45.600Z,13.00
2023-02-08T04:48:13.500Z,12.75
2023-02-08T04:50:41.721Z,11.25
2023-02-08T04:53:10.088Z,11.75
2023-02-08T04:55:37.982Z,12.00
2023-02-08T04:58:05.834Z,10.50
2023-02-08T05:00:35.166Z,13.00
2023-02-08T05:03:03.388Z,11.25
2023-02-08T05:05:31.293Z,11.50
2023-02-08T05:07:59.274Z,12.25
2023-02-08T05:10:27.189Z,12.00
2023-02-08T05:12:55.357Z,10.50
2023-02-08T05:15:23.273Z,11.00
2023-02-08T05:17:52.559Z,9.75
2023-02-08T05:20:21.566Z,13.25
2023-02-08T05:22:49.760Z,10.50
2023-02-08T05:25:18.071Z,11.25
2023-02-08T05:27:46.003Z,12.25
2023-02-08T05:30:14.553Z,12.00
2023-02-08T05:32:42.467Z,11.00
2023-02-08T05:35:11.741Z,9.50
2023-02-08T05:37:39.636Z,10.00
2023-02-08T05:40:08.520Z,11.00
2023-02-08T05:42:36.740Z,11.00
2023-02-08T05:45:04.897Z,11.00
2023-02-08T05:47:33.072Z,9.75
2023-02-08T05:50:01.077Z,11.75
2023-02-08T05:52:30.659Z,10.75
2023-02-08T05:54:58.547Z,9.00
2023-02-08T05:57:26.453Z,9.50
2023-02-08T05:59:54.448Z,13.75
2023-02-08T06:02:22.605Z,10.00
2023-02-08T06:04:50.525Z,11.00
2023-02-08T06:07:18.421Z,10.00
2023-02-08T06:09:48.640Z,12.25
2023-02-08T06:12:16.886Z,9.50
2023-02-08T06:14:44.999Z,12.00
2023-02-08T06:17:12.870Z,10.25
2023-02-08T06:19:40.725Z,11.00
2023-02-08T06:22:08.693Z,11.00
2023-02-08T06:24:36.638Z,12.00
2023-02-08T06:27:06.304Z,14.00
2023-02-08T06:29:34.335Z,15.25
2023-02-08T06:32:02.362Z,16.00
2023-02-08T06:34:30.618Z,17.50
2023-02-08T06:36:59.848Z,14.75
2023-02-08T06:39:27.826Z,21.25
2023-02-08T06:41:55.851Z,18.50
2023-02-08T06:44:25.458Z,21.00
2023-02-08T06:46:53.391Z,18.50
2023-02-08T06:49:21.266Z,21.00
2023-02-08T06:51:49.170Z,21.75
2023-02-08T06:54:17.425Z,22.25
2023-02-08T06:56:45.327Z,22.00
2023-02-08T06:59:13.199Z,23.25
2023-02-08T07:01:42.461Z,26.00
2023-02-08T07:04:10.663Z,24.75
2023-02-08T07:06:38.577Z,25.75
2023-02-08T07:09:06.486Z,30.25
2023-02-08T07:11:34.381Z,30.50
2023-02-08T07:14:02.626Z,30.00
2023-02-08T07:16:30.627Z,33.75
2023-02-08T07:18:59.947Z,32.50
2023-02-08T07:21:27.866Z,36.00
2023-02-08T07:23:56.076Z,33.50
2023-02-08T07:26:23.986Z,42.00
2023-02-08T07:28:51.915Z,39.00
2023-02-08T07:31:19.849Z,41.00
2023-02-08T07:33:48.012Z,39.75
2023-02-08T07:36:17.318Z,42.00
2023-02-08T07:38:45.197Z,36.00
2023-02-08T07:41:14.460Z,39.75
2023-02-08T07:43:43.011Z,43.75
2023-02-08T07:46:11.418Z,41.00
2023-02-08T07:48:40.466Z,40.00
2023-02-08T07:51:08.504Z,40.75
2023-02-08T07:53:38.173Z,38.25
2023-02-08T07:56:06.393Z,37.25
2023-02-08T07:58:34.317Z,38.25
2023-02-08T08:01:12.531Z,37.00
2023-02-08T08:03:49.432Z,38.25
2023-02-08T08:06:17.328Z,39.00
2023-02-08T08:08:47.722Z,39.50
2023-02-08T08:11:15.786Z,36.25
2023-02-08T08:13:44.001Z,36.25
2023-02-08T08:16:11.977Z,38.00
2023-02-08T08:18:39.991Z,34.00
2023-02-08T08:21:07.891Z,34.25
2023-02-08T08:23:36.372Z,34.75
2023-02-08T08:26:09.774Z,33.75
2023-02-08T08:28:37.717Z,30.50
2023-02-08T08:31:10.488Z,30.75
2023-02-08T08:33:38.683Z,35.50
2023-02-08T08:36:07.036Z,31.50
2023-02-08T08:38:35.033Z,34.00
2023-02-08T08:41:02.952Z,33.00
2023-02-08T08:43:32.671Z,31.50
2023-02-08T08:46:00.641Z,29.00
2023-02-08T08:48:28.632Z,27.50
2023-02-08T08:50:56.504Z,29.25
2023-02-08T08:53:24.723Z,30.00
2023-02-08T08:55:52.846Z,29.25
2023-02-08T08:58:20.735Z,30.00
2023-02-08T09:00:50.026Z,25.50
2023-02-08T09:03:18.233Z,28.00
2023-02-08T09:05:46.190Z,26.25
2023-02-08T09:08:14.147Z,26.50
2023-02-08T09:10:42.210Z,24.50
2023-02-08T09:13:10.609Z,24.25
2023-02-08T09:15:39.942Z,26.50
2023-02-08T09:18:09.243Z,27.00
2023-02-08T09:20:38.893Z,23.25
2023-02-08T09:23:07.251Z,25.25
2023-02-08T09:25:35.180Z,24.25
2023-02-08T09:28:03.084Z,21.75
2023-02-08T09:30:31.000Z,23.75
2023-02-08T09:32:59.191Z,22.50
2023-02-08T09:35:28.520Z,23.75
2023-02-08T09:37:58.170Z,22.50
2023-02-08T09:40:27.515Z,22.00
2023-02-08T09:42:59.243Z,21.00
2023-02-08T09:45:54.332Z,21.75
2023-02-08T09:48:27.907Z,19.00
2023-02-08T09:50:57.687Z,22.00
2023-02-08T09:53:28.681Z,19.50
2023-02-08T09:55:59.486Z,19.75
2023-02-08T09:58:31.984Z,21.50
2023-02-08T10:00:59.895Z,20.00
2023-02-08T10:03:35.662Z,21.25
2023-02-08T10:06:05.956Z,17.25
2023-02-08T10:08:35.584Z,17.25
2023-02-08T10:11:10.795Z,20.25
2023-02-08T10:14:00.928Z,16.75
2023-02-08T10:16:38.989Z,15.75
2023-02-08T10:19:09.653Z,18.00
2023-02-08T10:21:46.875Z,16.25
2023-02-08T10:24:26.029Z,15.25
2023-02-08T10:26:56.460Z,16.50
2023-02-08T10:29:55.063Z,14.50
2023-02-08T10:32:35.600Z,15.00
2023-02-08T10:35:04.398Z,13.75
2023-02-08T10:37:34.939Z,14.25
2023-02-08T10:40:17.520Z,16.75
2023-02-08T10:42:47.701Z,15.50
2023-02-08T10:45:24.395Z,15.25
2023-02-08T10:47:54.260Z,16.00
2023-02-08T10:50:23.835Z,16.00
2023-02-08T10:52:53.407Z,13.00
2023-02-08T10:55:22.112Z,13.50
2023-02-08T10:57:52.429Z,13.00
2023-02-08T11:00:21.387Z,13.25
2023-02-08T11:02:51.246Z,12.50
2023-02-08T11:05:19.868Z,15.00
2023-02-08T11:07:47.735Z,14.00
2023-02-08T11:10:27.068Z,12.50
2023-02-08T11:12:56.223Z,13.50
2023-02-08T11:15:24.979Z,12.25
2023-02-08T11:17:56.624Z,15.75
2023-02-08T11:20:26.432Z,13.00
2023-02-08T11:22:54.630Z,14.25
2023-02-08T11:25:37.305Z,13.75
2023-02-08T11:28:05.572Z,11.00
2023-02-08T11:30:34.263Z,10.25
2023-02-08T11:33:20.016Z,13.00
2023-02-08T11:35:54.841Z,12.00
2023-02-08T11:38:27.523Z,11.00
2023-02-08T11:40:58.820Z,10.25
2023-02-08T11:43:28.241Z,12.75
2023-02-08T11:45:56.589Z,12.00
2023-02-08T11:48:26.618Z,9.75
2023-02-08T11:50:55.627Z,11.00
2023-02-08T11:53:27.991Z,11.25
2023-02-08T11:56:16.746Z,10.25
2023-02-08T11:59:02.236Z,11.00
2023-02-08T12:01:31.318Z,11.25
2023-02-08T12:04:00.777Z,9.00
2023-02-08T12:06:50.626Z,11.00
2023-02-08T12:09:24.851Z,10.00
2023-02-08T12:11:55.828Z,9.50
2023-02-08T12:14:32.483Z,11.75
2023-02-08T12:17:12.510Z,10.50
2023-02-08T12:20:06.890Z,8.50
2023-02-08T12:22:35.819Z,9.00
2023-02-08T12:25:11.641Z,10.75
2023-02-08T12:27:43.853Z,9.00
2023-02-08T12:30:16.459Z,10.00
2023-02-08T12:32:56.335Z,8.00
2023-02-08T12:36:01.445Z,9.50
2023-02-08T12:38:57.875Z,9.50
2023-02-08T12:41:30.963Z,8.50
2023-02-08T12:44:03.877Z,9.25
2023-02-08T12:46:51.585Z,8.75
2023-02-08T12:49:29.615Z,8.25
2023-02-08T12:52:00.385Z,8.75
2023-02-08T12:54:31.878Z,8.25
2023-02-08T12:57:02.495Z,8.00
2023-02-08T12:59:34.513Z,7.50
2023-02-08T13:02:04.511Z,8.00
2023-02-08T13:04:34.231Z,9.00
2023-02-08T13:07:04.409Z,7.00
2023-02-08T13:09:39.928Z,7.00
2023-02-08T13:12:09.661Z,8.50
2023-02-08T13:14:40.017Z,7.25
2023-02-08T13:17:13.515Z,7.50
2023-02-08T13:19:58.985Z,8.50
2023-02-08T13:22:27.527Z,8.00
2023-02-08T13:25:07.148Z,7.00
2023-02-08T13:27:35.664Z,7.00
2023-02-08T13:30:07.786Z,8.25
2023-02-08T13:32:37.017Z,6.50
2023-02-08T13:35:07.099Z,7.25
2023-02-08T13:37:35.952Z,7.50
2023-02-08T13:40:05.987Z,8.50
2023-02-08T13:42:36.729Z,7.25
2023-02-08T13:45:09.513Z,8.00
2023-02-08T13:47:42.365Z,9.00
2023-02-08T13:50:41.261Z,7.00
2023-02-08T13:53:09.512Z,6.00
2023-02-08T13:55:56.663Z,6.75
2023-02-08T13:58:30.154Z,6.00
2023-02-08T14:01:18.693Z,6.00
2023-02-08T14:03:47.094Z,7.00
2023-02-08T14:06:20.195Z,6.00
2023-02-08T14:08:53.877Z,7.00
2023-02-08T14:11:29.080Z,7.00
2023-02-08T14:13:59.800Z,7.50
2023-02-08T14:16:33.319Z,6.00
2023-02-08T14:19:01.986Z,6.00
2023-02-08T14:21:34.918Z,5.00
2023-02-08T14:24:05.000Z,7.00
2023-02-08T14:26:33.007Z,6.00
2023-02-08T14:29:02.201Z,5.00
2023-02-08T14:31:44.444Z,6.00
2023-02-08T14:34:25.371Z,5.25
2023-02-08T14:37:04.275Z,5.00
2023-02-08T14:39:33.445Z,5.00
2023-02-08T14:42:03.914Z,6.00
2023-02-08T14:44:57.379Z,5.50
2023-02-08T14:47:55.031Z,5.75
2023-02-08T14:50:27.501Z,4.25
2023-02-08T14:52:59.711Z,4.00
2023-02-08T14:55:28.882Z,5.00
2023-02-08T14:57:57.421Z,7.50
2023-02-08T15:00:28.157Z,4.75
2023-02-08T15:02:57.792Z,5.50
2023-02-08T15:05:26.392Z,5.00
2023-02-08T15:07:54.472Z,6.00
2023-02-08T15:10:22.726Z,5.50
2023-02-08T15:12:52.304Z,5.25
2023-02-08T15:15:27.892Z,6.00
2023-02-08T15:17:57.271Z,6.00
2023-02-08T15:20:26.229Z,6.00
2023-02-08T15:23:01.007Z,5.00
2023-02-08T15:25:29.978Z,5.00
2023-02-08T15:27:59.031Z,5.50
2023-02-08T15:30:33.130Z,4.75
2023-02-08T15:33:03.369Z,4.50
2023-02-08T15:35:33.018Z,5.00
2023-02-08T15:38:00.885Z,4.50
2023-02-08T15:40:29.526Z,4.00
2023-02-08T15:43:04.196Z,4.00
2023-02-08T15:45:32.088Z,4.50
2023-02-08T15:48:02.733Z,5.00
2023-02-08T15:50:30.728Z,4.00
2023-02-08T15:52:59.800Z,5.50
2023-02-08T15:55:28.371Z,5.00
2023-02-08T15:57:57.026Z,4.00
2023-02-08T16:00:26.142Z,5.00
2023-02-08T16:02:55.351Z,4.00
2023-02-08T16:05:26.413Z,4.25
2023-02-08T16:07:55.548Z,4.00
2023-02-08T16:10:26.304Z,4.75
2023-02-08T16:12:56.394Z,4.25
2023-02-08T16:15:38.004Z,4.25
2023-02-08T16:18:05.964Z,4.75
2023-02-08T16:20:35.899Z,4.00
2023-02-08T16:23:04.552Z,4.00
2023-02-08T16:25:38.073Z,4.50
2023-02-08T16:28:07.146Z,5.25
2023-02-08T16:30:35.216Z,5.25
2023-02-08T16:33:09.734Z,3.50
2023-02-08T16:35:39.608Z,4.00
2023-02-08T16:38:10.128Z,5.00
2023-02-08T16:40:52.486Z,4.00
2023-02-08T16:43:25.515Z,5.25
2023-02-08T16:46:25.302Z,3.75
2023-02-08T16:48:54.558Z,4.00
2023-02-08T16:51:25.223Z,3.75
2023-02-08T16:53:55.419Z,4.00
2023-02-08T16:56:23.493Z,6.00
2023-02-08T16:58:51.417Z,4.00
2023-02-08T17:01:19.400Z,3.25
2023-02-08T17:03:50.108Z,4.75
2023-02-08T17:06:24.975Z,4.50
2023-02-08T17:08:52.954Z,7.00
2023-02-08T17:11:20.940Z,4.00
2023-02-08T17:13:49.149Z,4.00
2023-02-08T17:16:19.105Z,5.75
2023-02-08T17:18:47.236Z,5.00
2023-02-08T17:21:15.182Z,4.50
2023-02-08T17:23:44.995Z,6.00
2023-02-08T17:26:14.866Z,4.00
2023-02-08T17:28:43.054Z,4.25
2023-02-08T17:31:11.796Z,5.00
2023-02-08T17:33:40.713Z,4.00
2023-02-08T17:36:09.374Z,3.50
2023-02-08T17:38:39.182Z,4.00
2023-02-08T17:41:08.595Z,4.00
2023-02-08T17:43:37.254Z,4.50
2023-02-08T17:46:10.209Z,5.00
2023-02-08T17:48:38.298Z,5.00
2023-02-08T17:51:09.959Z,4.00
2023-02-08T17:53:40.828Z,4.00
2023-02-08T17:56:11.198Z,5.00
2023-02-08T17:58:39.125Z,4.75
2023-02-08T18:01:07.276Z,4.00
2023-02-08T18:03:35.775Z,4.50
2023-02-08T18:06:03.751Z,3.75
2023-02-08T18:08:31.628Z,4.50
2023-02-08T18:11:04.106Z,4.00
2023-02-08T18:13:34.072Z,5.00
2023-02-08T18:16:08.039Z,7.00
2023-02-08T18:18:35.962Z,15.50
2023-02-08T18:21:03.953Z,22.75
2023-02-08T18:23:32.793Z,26.25
2023-02-08T18:26:07.350Z,29.50
2023-02-08T18:28:36.691Z,32.00
2023-02-08T18:31:05.139Z,33.50
2023-02-08T18:33:33.497Z,44.50
2023-02-08T18:36:01.442Z,45.25
2023-02-08T18:38:29.333Z,37.50
2023-02-08T18:40:57.253Z,48.00
2023-02-08T18:43:25.542Z,45.25
2023-02-08T18:46:02.310Z,45.25
2023-02-08T18:48:30.382Z,46.00
2023-02-08T18:50:58.351Z,46.50
2023-02-08T18:53:27.284Z,43.50
2023-02-08T18:55:55.483Z,43.50
2023-02-08T18:58:23.438Z,44.25
2023-02-08T19:00:51.837Z,42.25
2023-02-08T19:03:21.657Z,41.00
2023-02-08T19:05:49.927Z,45.25
2023-02-08T19:08:17.848Z,40.25
2023-02-08T19:10:45.757Z,41.00
2023-02-08T19:13:13.898Z,38.75
2023-02-08T19:15:42.221Z,36.50
2023-02-08T19:18:10.405Z,37.25
2023-02-08T19:20:39.769Z,33.75
2023-02-08T19:23:07.960Z,31.25
2023-02-08T19:25:37.733Z,35.75
2023-02-08T19:28:06.014Z,31.00
2023-02-08T19:30:33.959Z,30.50
2023-02-08T19:33:02.429Z,32.25
2023-02-08T19:35:30.386Z,28.75
2023-02-08T19:37:59.740Z,26.00
2023-02-08T19:40:27.678Z,26.25
2023-02-08T19:42:55.851Z,27.75
2023-02-08T19:45:25.105Z,25.00
2023-02-08T19:47:54.991Z,27.00
2023-02-08T19:50:22.892Z,27.25
2023-02-08T19:52:51.062Z,31.25
2023-02-08T19:55:20.373Z,41.00
2023-02-08T19:57:48.245Z,41.00
2023-02-08T20:00:23.403Z,39.25
2023-02-08T20:02:52.071Z,47.00
2023-02-08T20:05:19.956Z,37.25
2023-02-08T20:07:47.853Z,39.50
2023-02-08T20:10:15.935Z,40.75
2023-02-08T20:12:45.458Z,41.00
2023-02-08T20:15:13.344Z,37.25
2023-02-08T20:17:42.423Z,39.50
2023-02-08T20:20:11.463Z,43.00
2023-02-08T20:22:39.629Z,37.25
2023-02-08T20:25:09.883Z,39.00
2023-02-08T20:27:37.822Z,42.00
2023-02-08T20:30:12.182Z,34.50
2023-02-08T20:32:40.893Z,32.25
2023-02-08T20:35:08.926Z,38.50
2023-02-08T20:37:36.819Z,36.25
2023-02-08T20:40:05.325Z,39.00
2023-02-08T20:42:33.492Z,34.25
2023-02-08T20:45:01.419Z,31.75
2023-02-08T20:47:33.844Z,31.00
2023-02-08T20:50:16.858Z,32.25
2023-02-08T20:52:46.839Z,32.25
2023-02-08T20:55:14.839Z,32.25
2023-02-08T20:57:42.827Z,32.75
2023-02-08T21:00:12.302Z,31.00
2023-02-08T21:02:42.760Z,33.00
2023-02-08T21:05:10.770Z,30.00
2023-02-08T21:07:40.338Z,30.25
2023-02-08T21:10:09.069Z,29.75
2023-02-08T21:12:37.675Z,30.25
2023-02-08T21:15:07.578Z,30.00
2023-02-08T21:17:35.611Z,28.00
2023-02-08T21:20:05.200Z,27.50
2023-02-08T21:22:33.535Z,31.75
2023-02-08T21:25:01.493Z,27.75
2023-02-08T21:27:29.750Z,35.25
2023-02-08T21:29:57.820Z,32.00
2023-02-08T21:32:26.441Z,37.75
2023-02-08T21:34:54.476Z,40.75
2023-02-08T21:37:23.741Z,43.25
2023-02-08T21:39:51.643Z,43.00
2023-02-08T21:42:19.807Z,43.00
2023-02-08T21:44:47.685Z,38.75
2023-02-08T21:47:15.617Z,41.50
2023-02-08T21:50:00.814Z,31.50
2023-02-08T21:52:47.688Z,37.25
2023-02-08T21:55:15.752Z,37.00
2023-02-08T21:57:43.653Z,35.50
2023-02-08T22:00:13.039Z,35.00
2023-02-08T22:02:41.059Z,35.00
2023-02-08T22:05:26.828Z,37.75
2023-02-08T22:07:57.411Z,36.00
2023-02-08T22:10:26.535Z,37.25
2023-02-08T22:12:55.163Z,35.50
2023-02-08T22:15:24.041Z,40.25
2023-02-08T22:17:53.570Z,40.00
2023-02-08T22:20:21.549Z,38.50
2023-02-08T22:22:52.620Z,38.25
2023-02-08T22:25:23.621Z,41.25
2023-02-08T22:27:51.598Z,35.50
2023-02-08T22:30:19.865Z,36.50
2023-02-08T22:32:48.044Z,36.75
2023-02-08T22:35:16.382Z,39.25
2023-02-08T22:37:44.302Z,43.00
2023-02-08T22:40:12.973Z,40.00
2023-02-08T22:42:42.489Z,36.50
2023-02-08T22:45:10.883Z,38.25
2023-02-08T22:47:38.830Z,38.75
2023-02-08T22:50:07.454Z,36.00
2023-02-08T22:52:35.690Z,36.75
2023-02-08T22:55:04.185Z,34.25
2023-02-08T22:57:32.313Z,34.00
2023-02-08T23:00:01.677Z,33.50
2023-02-08T23:02:30.032Z,30.50
2023-02-08T23:04:57.983Z,33.25
2023-02-08T23:07:25.908Z,31.50
2023-02-08T23:09:53.816Z,29.75
2023-02-08T23:12:21.960Z,32.75
2023-02-08T23:14:51.077Z,29.75
2023-02-08T23:17:20.353Z,27.75
2023-02-08T23:19:48.222Z,30.25
2023-02-08T23:22:16.490Z,27.00
2023-02-08T23:24:44.391Z,26.25
2023-02-08T23:27:12.525Z,26.50
2023-02-08T23:29:40.408Z,28.50
2023-02-08T23:32:08.393Z,28.50
2023-02-08T23:34:37.673Z,24.50
2023-02-08T23:37:05.674Z,26.50
2023-02-08T23:39:34.162Z,27.00
2023-02-08T23:42:02.077Z,24.00
2023-02-08T23:44:30.224Z,23.00
2023-02-08T23:46:58.198Z,23.50
2023-02-08T23:49:26.163Z,26.75
2023-02-08T23:51:55.959Z,25.00
2023-02-08T23:54:24.158Z,23.50
2023-02-08T23:56:53.053Z,21.75
2023-02-08T23:59:20.982Z,21.00
